sensor_id;sensor_type;location;lat;lon;timestamp;pressure;altitude;pressure_sealevel;temperature;humidity
70589;BME280;58152;49.202;18.744;2023-02-14T00:00:55;99098.28;;;3.77;73.46
70589;BME280;58152;49.202;18.744;2023-02-14T00:03:20;99093.94;;;3.76;73.41
70589;BME280;58152;49.202;18.744;2023-02-14T00:05:46;99096.53;;;3.77;73.41
70589;BME280;58152;49.202;18.744;2023-02-14T00:08:11;99099.13;;;3.77;73.31
70589;BME280;58152;49.202;18.744;2023-02-14T00:10:37;99082.66;;;3.72;73.06
70589;BME280;58152;49.202;18.744;2023-02-14T00:13:04;99086.97;;;3.75;73.15
70589;BME280;58152;49.202;18.744;2023-02-14T00:15:29;99087.84;;;3.74;73.08
70589;BME280;58152;49.202;18.744;2023-02-14T00:17:56;99089.56;;;3.75;73.51
70589;BME280;58152;49.202;18.744;2023-02-14T00:20:25;99090.44;;;3.74;73.27
70589;BME280;58152;49.202;18.744;2023-02-14T00:22:51;99094.81;;;3.76;73.18
70589;BME280;58152;49.202;18.744;2023-02-14T00:25:17;99093.03;;;3.72;73.59
70589;BME280;58152;49.202;18.744;2023-02-14T00:27:43;99092.16;;;3.73;72.98
70589;BME280;58152;49.202;18.744;2023-02-14T00:30:10;99081.75;;;3.69;73.34
70589;BME280;58152;49.202;18.744;2023-02-14T00:32:37;99080.00;;;3.69;73.59
70589;BME280;58152;49.202;18.744;2023-02-14T00:35:04;99086.06;;;3.67;73.29
70589;BME280;58152;49.202;18.744;2023-02-14T00:37:29;99086.94;;;3.67;73.42
70589;BME280;58152;49.202;18.744;2023-02-14T00:39:55;99080.88;;;3.67;73.02
70589;BME280;58152;49.202;18.744;2023-02-14T00:42:20;99086.06;;;3.68;73.26
70589;BME280;58152;49.202;18.744;2023-02-14T00:44:46;99082.56;;;3.66;73.53
70589;BME280;58152;49.202;18.744;2023-02-14T00:47:11;99086.06;;;3.67;73.15
70589;BME280;58152;49.202;18.744;2023-02-14T00:49:36;99089.53;;;3.67;73.02
70589;BME280;58152;49.202;18.744;2023-02-14T00:52:02;99086.91;;;3.64;73.28
70589;BME280;58152;49.202;18.744;2023-02-14T00:54:27;99082.56;;;3.63;73.76
70589;BME280;58152;49.202;18.744;2023-02-14T00:56:53;99080.78;;;3.59;73.60
70589;BME280;58152;49.202;18.744;2023-02-14T00:59:18;99078.19;;;3.61;73.86
70589;BME280;58152;49.202;18.744;2023-02-14T01:01:44;99075.59;;;3.59;73.13
70589;BME280;58152;49.202;18.744;2023-02-14T01:04:09;99076.47;;;3.60;73.57
70589;BME280;58152;49.202;18.744;2023-02-14T01:06:35;99075.59;;;3.61;73.74
70589;BME280;58152;49.202;18.744;2023-02-14T01:09:00;99076.41;;;3.56;73.47
70589;BME280;58152;49.202;18.744;2023-02-14T01:11:26;99073.81;;;3.55;73.69
70589;BME280;58152;49.202;18.744;2023-02-14T01:13:54;99066.00;;;3.50;73.46
70589;BME280;58152;49.202;18.744;2023-02-14T01:16:21;99068.59;;;3.49;73.95
70589;BME280;58152;49.202;18.744;2023-02-14T01:18:48;99069.44;;;3.49;73.90
70589;BME280;58152;49.202;18.744;2023-02-14T01:21:25;99069.44;;;3.49;73.46
70589;BME280;58152;49.202;18.744;2023-02-14T01:23:53;99062.50;;;3.47;73.67
70589;BME280;58152;49.202;18.744;2023-02-14T01:26:20;99051.25;;;3.45;73.91
70589;BME280;58152;49.202;18.744;2023-02-14T01:28:45;99057.28;;;3.45;73.87
70589;BME280;58152;49.202;18.744;2023-02-14T01:31:20;99063.34;;;3.47;74.07
70589;BME280;58152;49.202;18.744;2023-02-14T01:33:47;99059.91;;;3.47;74.04
70589;BME280;58152;49.202;18.744;2023-02-14T01:36:21;99066.81;;;3.46;73.63
70589;BME280;58152;49.202;18.744;2023-02-14T01:38:47;99060.75;;;3.44;74.18
70589;BME280;58152;49.202;18.744;2023-02-14T01:41:14;99058.13;;;3.43;74.18
70589;BME280;58152;49.202;18.744;2023-02-14T01:46:29;99046.91;;;3.44;74.27
70589;BME280;58152;49.202;18.744;2023-02-14T01:48:59;99052.94;;;3.43;74.10
70589;BME280;58152;49.202;18.744;2023-02-14T01:51:26;99049.47;;;3.41;74.19
70589;BME280;58152;49.202;18.744;2023-02-14T01:53:52;99041.69;;;3.41;74.16
70589;BME280;58152;49.202;18.744;2023-02-14T01:56:23;99055.53;;;3.41;74.36
70589;BME280;58152;49.202;18.744;2023-02-14T01:58:53;99052.09;;;3.44;74.16
70589;BME280;58152;49.202;18.744;2023-02-14T02:01:21;99055.56;;;3.44;74.00
70589;BME280;58152;49.202;18.744;2023-02-14T02:03:54;99046.00;;;3.42;74.51
70589;BME280;58152;49.202;18.744;2023-02-14T02:06:25;99044.28;;;3.41;74.05
70589;BME280;58152;49.202;18.744;2023-02-14T02:09:07;99039.03;;;3.38;73.90
70589;BME280;58152;49.202;18.744;2023-02-14T02:11:35;99041.63;;;3.35;74.02
70589;BME280;58152;49.202;18.744;2023-02-14T02:14:01;99048.56;;;3.37;74.07
70589;BME280;58152;49.202;18.744;2023-02-14T02:17:10;99044.22;;;3.38;74.41
70589;BME280;58152;49.202;18.744;2023-02-14T02:37:02;99037.25;;;3.32;74.08
70589;BME280;58152;49.202;18.744;2023-02-14T02:45:05;99031.22;;;3.33;74.45
70589;BME280;58152;49.202;18.744;2023-02-14T02:47:51;99034.66;;;3.32;74.48
70589;BME280;58152;49.202;18.744;2023-02-14T02:55:56;99018.16;;;3.22;74.44
70589;BME280;58152;49.202;18.744;2023-02-14T02:58:55;99029.44;;;3.26;74.17
70589;BME280;58152;49.202;18.744;2023-02-14T03:01:33;99030.25;;;3.25;74.56
70589;BME280;58152;49.202;18.744;2023-02-14T03:04:04;99032.84;;;3.23;74.38
70589;BME280;58152;49.202;18.744;2023-02-14T03:06:50;99039.81;;;3.26;74.37
70589;BME280;58152;49.202;18.744;2023-02-14T03:14:25;99045.84;;;3.26;74.47
70589;BME280;58152;49.202;18.744;2023-02-14T03:17:03;99038.03;;;3.25;74.48
70589;BME280;58152;49.202;18.744;2023-02-14T03:19:40;99038.06;;;3.26;74.65
70589;BME280;58152;49.202;18.744;2023-02-14T03:25:27;99033.75;;;3.25;74.82
70589;BME280;58152;49.202;18.744;2023-02-14T03:28:15;99025.94;;;3.24;74.77
70589;BME280;58152;49.202;18.744;2023-02-14T03:31:03;99038.09;;;3.28;74.66
70589;BME280;58152;49.202;18.744;2023-02-14T03:33:45;99032.84;;;3.25;74.15
70589;BME280;58152;49.202;18.744;2023-02-14T03:36:21;99029.38;;;3.24;74.55
70589;BME280;58152;49.202;18.744;2023-02-14T03:39:05;99031.16;;;3.27;74.36
70589;BME280;58152;49.202;18.744;2023-02-14T03:41:38;99037.22;;;3.26;74.59
70589;BME280;58152;49.202;18.744;2023-02-14T03:44:08;99035.47;;;3.26;74.16
70589;BME280;58152;49.202;18.744;2023-02-14T03:46:39;99037.22;;;3.29;74.32
70589;BME280;58152;49.202;18.744;2023-02-14T03:49:13;99037.28;;;3.34;74.52
70589;BME280;58152;49.202;18.744;2023-02-14T03:51:44;99035.56;;;3.36;74.14
70589;BME280;58152;49.202;18.744;2023-02-14T03:54:12;99030.41;;;3.39;73.94
70589;BME280;58152;49.202;18.744;2023-02-14T03:56:48;99029.56;;;3.41;73.87
70589;BME280;58152;49.202;18.744;2023-02-14T03:59:25;99038.22;;;3.43;73.65
70589;BME280;58152;49.202;18.744;2023-02-14T04:04:43;99027.84;;;3.42;73.48
70589;BME280;58152;49.202;18.744;2023-02-14T04:07:27;99034.81;;;3.44;73.21
70589;BME280;58152;49.202;18.744;2023-02-14T04:09:53;99035.63;;;3.43;73.04
70589;BME280;58152;49.202;18.744;2023-02-14T04:12:19;99032.22;;;3.46;73.49
70589;BME280;58152;49.202;18.744;2023-02-14T04:14:44;99031.34;;;3.47;73.06
70589;BME280;58152;49.202;18.744;2023-02-14T04:17:10;99022.69;;;3.48;72.57
70589;BME280;58152;49.202;18.744;2023-02-14T04:19:59;99033.97;;;3.48;72.44
70589;BME280;58152;49.202;18.744;2023-02-14T04:22:24;99033.13;;;3.49;72.54
70589;BME280;58152;49.202;18.744;2023-02-14T04:24:49;99017.47;;;3.43;72.40
70589;BME280;58152;49.202;18.744;2023-02-14T04:27:15;99027.94;;;3.49;72.42
70589;BME280;58152;49.202;18.744;2023-02-14T04:29:47;99019.25;;;3.47;72.25
70589;BME280;58152;49.202;18.744;2023-02-14T04:32:18;99030.50;;;3.48;72.08
70589;BME280;58152;49.202;18.744;2023-02-14T04:34:45;99034.81;;;3.47;71.92
70589;BME280;58152;49.202;18.744;2023-02-14T04:37:10;99027.06;;;3.49;72.26
70589;BME280;58152;49.202;18.744;2023-02-14T04:39:36;99034.91;;;3.55;72.42
70589;BME280;58152;49.202;18.744;2023-02-14T04:42:03;99034.13;;;3.64;72.52
70589;BME280;58152;49.202;18.744;2023-02-14T04:44:29;99028.06;;;3.65;71.69
70589;BME280;58152;49.202;18.744;2023-02-14T04:46:54;99031.50;;;3.64;71.50
70589;BME280;58152;49.202;18.744;2023-02-14T04:49:20;99027.19;;;3.63;71.22
70589;BME280;58152;49.202;18.744;2023-02-14T04:51:46;99028.88;;;3.58;71.12
70589;BME280;58152;49.202;18.744;2023-02-14T04:54:12;99031.47;;;3.59;70.82
70589;BME280;58152;49.202;18.744;2023-02-14T04:56:37;99031.47;;;3.58;71.37
70589;BME280;58152;49.202;18.744;2023-02-14T04:59:03;99028.88;;;3.58;70.98
70589;BME280;58152;49.202;18.744;2023-02-14T05:01:28;99022.75;;;3.49;70.78
70589;BME280;58152;49.202;18.744;2023-02-14T05:03:53;99027.94;;;3.51;70.83
70589;BME280;58152;49.202;18.744;2023-02-14T05:06:19;99026.19;;;3.50;70.67
70589;BME280;58152;49.202;18.744;2023-02-14T05:08:44;99028.78;;;3.51;70.84
70589;BME280;58152;49.202;18.744;2023-02-14T05:11:11;99028.78;;;3.50;71.00
70589;BME280;58152;49.202;18.744;2023-02-14T05:13:37;99032.25;;;3.49;70.87
70589;BME280;58152;49.202;18.744;2023-02-14T05:16:02;99040.03;;;3.50;71.01
70589;BME280;58152;49.202;18.744;2023-02-14T05:18:27;99032.25;;;3.49;70.83
70589;BME280;58152;49.202;18.744;2023-02-14T05:20:53;99032.25;;;3.49;70.34
70589;BME280;58152;49.202;18.744;2023-02-14T05:23:20;99035.66;;;3.46;70.27
70589;BME280;58152;49.202;18.744;2023-02-14T05:25:49;99041.75;;;3.48;70.17
70589;BME280;58152;49.202;18.744;2023-02-14T05:28:16;99043.47;;;3.48;69.91
70589;BME280;58152;49.202;18.744;2023-02-14T05:30:42;99041.72;;;3.45;69.88
70589;BME280;58152;49.202;18.744;2023-02-14T05:33:07;99040.88;;;3.48;70.37
70589;BME280;58152;49.202;18.744;2023-02-14T05:35:33;99040.00;;;3.44;69.68
70589;BME280;58152;49.202;18.744;2023-02-14T05:37:58;99046.91;;;3.45;69.91
70589;BME280;58152;49.202;18.744;2023-02-14T05:40:24;99045.19;;;3.44;69.52
70589;BME280;58152;49.202;18.744;2023-02-14T05:42:51;99046.06;;;3.45;69.72
70589;BME280;58152;49.202;18.744;2023-02-14T05:45:16;99043.41;;;3.43;69.33
70589;BME280;58152;49.202;18.744;2023-02-14T05:47:42;99046.00;;;3.42;68.94
70589;BME280;58152;49.202;18.744;2023-02-14T05:50:07;99055.53;;;3.43;69.41
70589;BME280;58152;49.202;18.744;2023-02-14T05:52:33;99059.88;;;3.44;69.23
70589;BME280;58152;49.202;18.744;2023-02-14T05:54:59;99061.63;;;3.45;69.08
70589;BME280;58152;49.202;18.744;2023-02-14T05:57:24;99058.13;;;3.43;68.96
70589;BME280;58152;49.202;18.744;2023-02-14T05:59:50;99062.47;;;3.44;68.79
70589;BME280;58152;49.202;18.744;2023-02-14T06:02:15;99071.13;;;3.44;68.82
70589;BME280;58152;49.202;18.744;2023-02-14T06:04:41;99062.47;;;3.44;68.64
70589;BME280;58152;49.202;18.744;2023-02-14T06:07:06;99072.81;;;3.39;68.74
70589;BME280;58152;49.202;18.744;2023-02-14T06:09:32;99065.84;;;3.38;68.53
70589;BME280;58152;49.202;18.744;2023-02-14T06:11:57;99072.81;;;3.41;68.31
70589;BME280;58152;49.202;18.744;2023-02-14T06:14:23;99067.56;;;3.36;68.01
70589;BME280;58152;49.202;18.744;2023-02-14T06:16:49;99071.91;;;3.36;68.30
70589;BME280;58152;49.202;18.744;2023-02-14T06:19:14;99079.72;;;3.40;67.83
70589;BME280;58152;49.202;18.744;2023-02-14T06:21:39;99067.56;;;3.36;67.89
70589;BME280;58152;49.202;18.744;2023-02-14T06:24:05;99076.22;;;3.38;67.73
70589;BME280;58152;49.202;18.744;2023-02-14T06:26:30;99081.41;;;3.35;67.81
70589;BME280;58152;49.202;18.744;2023-02-14T06:28:58;99078.81;;;3.37;67.31
70589;BME280;58152;49.202;18.744;2023-02-14T06:31:24;99085.75;;;3.38;67.67
70589;BME280;58152;49.202;18.744;2023-02-14T06:33:51;99079.69;;;3.37;67.88
70589;BME280;58152;49.202;18.744;2023-02-14T06:36:17;99097.03;;;3.40;67.40
70589;BME280;58152;49.202;18.744;2023-02-14T06:38:43;99082.28;;;3.39;67.61
70589;BME280;58152;49.202;18.744;2023-02-14T06:41:09;99095.31;;;3.40;67.16
70589;BME280;58152;49.202;18.744;2023-02-14T06:43:36;99088.34;;;3.36;67.16
70589;BME280;58152;49.202;18.744;2023-02-14T06:46:02;99092.72;;;3.40;67.23
70589;BME280;58152;49.202;18.744;2023-02-14T06:48:28;99088.38;;;3.41;67.49
70589;BME280;58152;49.202;18.744;2023-02-14T06:50:53;99090.97;;;3.42;67.49
70589;BME280;58152;49.202;18.744;2023-02-14T06:53:19;99098.78;;;3.42;67.41
70589;BME280;58152;49.202;18.744;2023-02-14T06:55:45;99097.09;;;3.44;67.46
70589;BME280;58152;49.202;18.744;2023-02-14T06:58:11;99094.47;;;3.44;67.58
70589;BME280;58152;49.202;18.744;2023-02-14T07:00:37;99094.47;;;3.44;67.59
70589;BME280;58152;49.202;18.744;2023-02-14T07:03:04;99084.97;;;3.45;67.29
70589;BME280;58152;49.202;18.744;2023-02-14T07:05:30;99089.31;;;3.46;67.77
70589;BME280;58152;49.202;18.744;2023-02-14T07:07:56;99092.78;;;3.48;67.44
70589;BME280;58152;49.202;18.744;2023-02-14T07:10:21;99095.41;;;3.49;67.30
70589;BME280;58152;49.202;18.744;2023-02-14T07:12:46;99088.47;;;3.48;66.94
70589;BME280;58152;49.202;18.744;2023-02-14T07:15:12;99096.22;;;3.47;67.32
70589;BME280;58152;49.202;18.744;2023-02-14T07:17:39;99095.38;;;3.48;67.35
70589;BME280;58152;49.202;18.744;2023-02-14T07:20:06;99094.53;;;3.50;67.71
70589;BME280;58152;49.202;18.744;2023-02-14T07:22:32;99085.03;;;3.52;67.65
70589;BME280;58152;49.202;18.744;2023-02-14T07:24:58;99092.81;;;3.52;67.28
70589;BME280;58152;49.202;18.744;2023-02-14T07:27:24;99075.50;;;3.48;66.64
70589;BME280;58152;49.202;18.744;2023-02-14T07:29:49;99086.75;;;3.52;66.40
70589;BME280;58152;49.202;18.744;2023-02-14T07:32:15;99091.06;;;3.50;66.40
70589;BME280;58152;49.202;18.744;2023-02-14T07:34:40;99090.22;;;3.51;66.56
70589;BME280;58152;49.202;18.744;2023-02-14T07:37:05;99085.88;;;3.50;66.51
70589;BME280;58152;49.202;18.744;2023-02-14T07:39:31;99095.41;;;3.52;66.66
70589;BME280;58152;49.202;18.744;2023-02-14T07:41:56;99091.97;;;3.53;66.27
70589;BME280;58152;49.202;18.744;2023-02-14T07:44:22;99085.03;;;3.49;66.62
70589;BME280;58152;49.202;18.744;2023-02-14T07:46:47;99089.38;;;3.53;66.12
70589;BME280;58152;49.202;18.744;2023-02-14T07:49:12;99096.31;;;3.54;66.21
70589;BME280;58152;49.202;18.744;2023-02-14T07:51:38;99098.06;;;3.57;66.67
70589;BME280;58152;49.202;18.744;2023-02-14T07:54:03;99091.13;;;3.53;66.45
70589;BME280;58152;49.202;18.744;2023-02-14T07:56:28;99094.59;;;3.53;66.41
70589;BME280;58152;49.202;18.744;2023-02-14T07:58:54;99090.25;;;3.55;66.45
70589;BME280;58152;49.202;18.744;2023-02-14T08:01:19;99099.81;;;3.58;66.09
70589;BME280;58152;49.202;18.744;2023-02-14T08:03:45;99095.50;;;3.60;66.30
70589;BME280;58152;49.202;18.744;2023-02-14T08:06:14;99097.22;;;3.60;66.24
70589;BME280;58152;49.202;18.744;2023-02-14T08:08:40;99096.38;;;3.59;66.33
70589;BME280;58152;49.202;18.744;2023-02-14T08:11:05;99097.22;;;3.58;65.67
70589;BME280;58152;49.202;18.744;2023-02-14T08:13:31;99107.66;;;3.63;66.08
70589;BME280;58152;49.202;18.744;2023-02-14T08:15:56;99099.00;;;3.64;66.11
70589;BME280;58152;49.202;18.744;2023-02-14T08:18:39;99110.25;;;3.64;65.76
70589;BME280;58152;49.202;18.744;2023-02-14T08:21:06;99100.72;;;3.63;65.79
70589;BME280;58152;49.202;18.744;2023-02-14T08:23:32;99101.63;;;3.67;66.12
70589;BME280;58152;49.202;18.744;2023-02-14T08:25:57;99098.16;;;3.66;65.97
70589;BME280;58152;49.202;18.744;2023-02-14T08:28:24;99101.66;;;3.68;65.78
70589;BME280;58152;49.202;18.744;2023-02-14T08:30:50;99107.75;;;3.72;66.19
70589;BME280;58152;49.202;18.744;2023-02-14T08:33:15;99098.22;;;3.72;66.00
70589;BME280;58152;49.202;18.744;2023-02-14T08:35:41;99102.56;;;3.75;66.03
70589;BME280;58152;49.202;18.744;2023-02-14T08:38:06;99110.38;;;3.76;65.50
70589;BME280;58152;49.202;18.744;2023-02-14T08:40:33;99106.03;;;3.75;65.79
70589;BME280;58152;49.202;18.744;2023-02-14T08:43:00;99101.69;;;3.74;65.79
70589;BME280;58152;49.202;18.744;2023-02-14T08:45:25;99105.19;;;3.76;65.58
70589;BME280;58152;49.202;18.744;2023-02-14T08:47:51;99104.28;;;3.74;65.36
70589;BME280;58152;49.202;18.744;2023-02-14T08:50:17;99102.59;;;3.78;65.65
70589;BME280;58152;49.202;18.744;2023-02-14T08:52:43;99108.66;;;3.78;65.42
70589;BME280;58152;49.202;18.744;2023-02-14T08:55:10;99107.84;;;3.81;65.34
70589;BME280;58152;49.202;18.744;2023-02-14T08:57:35;99105.25;;;3.82;65.46
70589;BME280;58152;49.202;18.744;2023-02-14T09:00:02;99101.81;;;3.85;65.58
70589;BME280;58152;49.202;18.744;2023-02-14T09:02:28;99106.16;;;3.86;65.56
70589;BME280;58152;49.202;18.744;2023-02-14T09:04:54;99114.81;;;3.88;65.59
70589;BME280;58152;49.202;18.744;2023-02-14T09:07:19;99115.72;;;3.90;65.61
70589;BME280;58152;49.202;18.744;2023-02-14T09:09:45;99108.75;;;3.89;65.46
70589;BME280;58152;49.202;18.744;2023-02-14T09:12:10;99116.63;;;3.95;65.07
70589;BME280;58152;49.202;18.744;2023-02-14T09:14:38;99118.38;;;3.99;65.50
70589;BME280;58152;49.202;18.744;2023-02-14T09:17:06;99119.25;;;4.03;65.02
70589;BME280;58152;49.202;18.744;2023-02-14T09:19:32;99115.84;;;4.05;65.14
70589;BME280;58152;49.202;18.744;2023-02-14T09:21:58;99115.88;;;4.10;64.91
70589;BME280;58152;49.202;18.744;2023-02-14T09:24:24;99121.09;;;4.16;64.67
70589;BME280;58152;49.202;18.744;2023-02-14T09:26:49;99110.72;;;4.16;64.89
70589;BME280;58152;49.202;18.744;2023-02-14T09:29:14;99120.28;;;4.20;64.74
70589;BME280;58152;49.202;18.744;2023-02-14T09:31:40;99119.41;;;4.18;64.38
70589;BME280;58152;49.202;18.744;2023-02-14T09:34:06;99121.19;;;4.24;64.65
70589;BME280;58152;49.202;18.744;2023-02-14T09:36:32;99116.84;;;4.26;64.28
70589;BME280;58152;49.202;18.744;2023-02-14T09:39:15;99130.75;;;4.29;64.63
70589;BME280;58152;49.202;18.744;2023-02-14T09:44:40;99116.06;;;4.34;64.40
70589;BME280;58152;49.202;18.744;2023-02-14T09:50:00;99116.09;;;4.39;64.33
70589;BME280;58152;49.202;18.744;2023-02-14T09:52:29;99116.13;;;4.42;64.07
70589;BME280;58152;49.202;18.744;2023-02-14T09:54:58;99111.78;;;4.44;64.48
70589;BME280;58152;49.202;18.744;2023-02-14T10:00:28;99101.47;;;4.52;64.42
70589;BME280;58152;49.202;18.744;2023-02-14T10:03:15;99104.09;;;4.55;63.53
70589;BME280;58152;49.202;18.744;2023-02-14T10:11:20;99105.00;;;4.63;63.89
70589;BME280;58152;49.202;18.744;2023-02-14T10:16:32;99100.69;;;4.67;63.23
70589;BME280;58152;49.202;18.744;2023-02-14T10:21:38;99093.78;;;4.70;63.58
70589;BME280;58152;49.202;18.744;2023-02-14T10:24:16;99099.88;;;4.74;63.45
70589;BME280;58152;49.202;18.744;2023-02-14T10:26:44;99096.41;;;4.75;63.00
70589;BME280;58152;49.202;18.744;2023-02-14T10:29:17;99098.16;;;4.77;63.16
70589;BME280;58152;49.202;18.744;2023-02-14T10:34:51;99080.81;;;4.81;62.58
70589;BME280;58152;49.202;18.744;2023-02-14T10:37:24;99080.84;;;4.82;62.60
70589;BME280;58152;49.202;18.744;2023-02-14T10:42:43;99078.28;;;4.87;62.81
70589;BME280;58152;49.202;18.744;2023-02-14T10:47:59;99072.22;;;4.91;62.95
70589;BME280;58152;49.202;18.744;2023-02-14T10:53:25;99079.13;;;4.89;62.40
70589;BME280;58152;49.202;18.744;2023-02-14T10:58:56;99067.00;;;4.94;62.79
70589;BME280;58152;49.202;18.744;2023-02-14T11:01:26;99073.94;;;4.94;62.96
70589;BME280;58152;49.202;18.744;2023-02-14T11:03:55;99066.19;;;4.95;62.46
70589;BME280;58152;49.202;18.744;2023-02-14T11:06:27;99072.22;;;4.99;62.40
70589;BME280;58152;49.202;18.744;2023-02-14T11:08:53;99061.84;;;4.97;62.23
70589;BME280;58152;49.202;18.744;2023-02-14T11:14:31;99077.47;;;5.05;62.23
70589;BME280;58152;49.202;18.744;2023-02-14T11:16:58;99077.47;;;5.05;62.39
70589;BME280;58152;49.202;18.744;2023-02-14T11:19:34;99079.22;;;5.06;62.69
70589;BME280;58152;49.202;18.744;2023-02-14T11:22:00;99074.84;;;5.03;62.54
70589;BME280;58152;49.202;18.744;2023-02-14T11:24:38;99078.34;;;5.08;62.61
70589;BME280;58152;49.202;18.744;2023-02-14T11:27:16;99068.81;;;5.10;62.81
70589;BME280;58152;49.202;18.744;2023-02-14T11:29:45;99067.94;;;5.08;62.13
70589;BME280;58152;49.202;18.744;2023-02-14T11:32:19;99072.31;;;5.09;62.65
70589;BME280;58152;49.202;18.744;2023-02-14T11:34:53;99068.84;;;5.09;62.59
70589;BME280;58152;49.202;18.744;2023-02-14T11:39:48;99070.59;;;5.15;62.65
70589;BME280;58152;49.202;18.744;2023-02-14T11:42:34;99067.97;;;5.15;62.87
70589;BME280;58152;49.202;18.744;2023-02-14T11:45:02;99066.22;;;5.17;62.69
70589;BME280;58152;49.202;18.744;2023-02-14T11:47:31;99067.13;;;5.19;62.72
70589;BME280;58152;49.202;18.744;2023-02-14T11:50:04;99074.94;;;5.20;62.65
70589;BME280;58152;49.202;18.744;2023-02-14T11:52:38;99059.31;;;5.19;62.82
70589;BME280;58152;49.202;18.744;2023-02-14T11:55:21;99069.72;;;5.19;62.48
70589;BME280;58152;49.202;18.744;2023-02-14T11:57:51;99067.09;;;5.16;62.50
70589;BME280;58152;49.202;18.744;2023-02-14T12:00:21;99066.22;;;5.17;62.85
70589;BME280;58152;49.202;18.744;2023-02-14T12:02:49;99061.03;;;5.21;62.88
70589;BME280;58152;49.202;18.744;2023-02-14T12:05:31;99049.75;;;5.18;62.43
70589;BME280;58152;49.202;18.744;2023-02-14T12:08:00;99050.66;;;5.26;62.87
70589;BME280;58152;49.202;18.744;2023-02-14T12:10:31;99047.19;;;5.28;62.36
70589;BME280;58152;49.202;18.744;2023-02-14T12:21:38;99040.28;;;5.37;62.34
70589;BME280;58152;49.202;18.744;2023-02-14T12:24:14;99041.16;;;5.39;62.39
70589;BME280;58152;49.202;18.744;2023-02-14T12:26:49;99037.69;;;5.38;61.85
70589;BME280;58152;49.202;18.744;2023-02-14T12:29:24;99031.59;;;5.44;61.84
70589;BME280;58152;49.202;18.744;2023-02-14T12:31:53;99035.94;;;5.43;61.54
70589;BME280;58152;49.202;18.744;2023-02-14T12:34:20;99035.97;;;5.46;62.19
70589;BME280;58152;49.202;18.744;2023-02-14T12:39:44;99026.41;;;5.48;62.03
70589;BME280;58152;49.202;18.744;2023-02-14T12:42:25;99024.69;;;5.58;61.83
70589;BME280;58152;49.202;18.744;2023-02-14T12:47:59;99016.91;;;6.33;60.81
70589;BME280;58152;49.202;18.744;2023-02-14T12:56:02;99012.56;;;6.17;60.50
70589;BME280;58152;49.202;18.744;2023-02-14T13:04:49;99010.84;;;6.23;60.13
70589;BME280;58152;49.202;18.744;2023-02-14T13:12:29;99001.25;;;6.33;59.93
70589;BME280;58152;49.202;18.744;2023-02-14T13:15:10;98999.53;;;6.24;60.33
70589;BME280;58152;49.202;18.744;2023-02-14T13:17:55;98997.81;;;6.16;60.40
70589;BME280;58152;49.202;18.744;2023-02-14T13:20:40;99013.44;;;6.14;60.30
70589;BME280;58152;49.202;18.744;2023-02-14T13:23:40;99010.81;;;6.13;60.32
70589;BME280;58152;49.202;18.744;2023-02-14T13:26:08;99009.94;;;6.14;60.53
70589;BME280;58152;49.202;18.744;2023-02-14T13:28:36;99012.56;;;6.12;60.65
70589;BME280;58152;49.202;18.744;2023-02-14T13:31:02;99012.56;;;6.14;60.39
70589;BME280;58152;49.202;18.744;2023-02-14T13:35:59;99007.34;;;6.17;60.50
70589;BME280;58152;49.202;18.744;2023-02-14T13:38:27;99009.97;;;6.15;60.37
70589;BME280;58152;49.202;18.744;2023-02-14T13:40:54;99016.91;;;6.16;60.39
70589;BME280;58152;49.202;18.744;2023-02-14T13:43:50;99012.56;;;6.17;60.26
70589;BME280;58152;49.202;18.744;2023-02-14T13:46:28;98996.06;;;6.08;60.42
70589;BME280;58152;49.202;18.744;2023-02-14T13:49:30;99004.75;;;6.12;60.27
70589;BME280;58152;49.202;18.744;2023-02-14T13:51:59;98996.06;;;6.07;60.37
70589;BME280;58152;49.202;18.744;2023-02-14T13:56:57;98993.47;;;6.01;60.87
70589;BME280;58152;49.202;18.744;2023-02-14T13:59:34;99001.28;;;5.99;60.53
70589;BME280;58152;49.202;18.744;2023-02-14T14:04:51;99002.16;;;5.95;60.66
70589;BME280;58152;49.202;18.744;2023-02-14T14:07:25;99010.84;;;5.93;60.68
70589;BME280;58152;49.202;18.744;2023-02-14T14:09:57;99007.38;;;5.92;60.55
70589;BME280;58152;49.202;18.744;2023-02-14T14:17:34;99005.66;;;5.93;60.65
70589;BME280;58152;49.202;18.744;2023-02-14T14:20:02;99005.66;;;5.93;60.64
70589;BME280;58152;49.202;18.744;2023-02-14T14:22:28;99008.22;;;5.91;60.62
70589;BME280;58152;49.202;18.744;2023-02-14T14:24:57;99009.13;;;5.96;60.80
70589;BME280;58152;49.202;18.744;2023-02-14T14:27:47;99007.38;;;5.94;60.81
70589;BME280;58152;49.202;18.744;2023-02-14T14:32:40;99002.13;;;5.91;60.75
70589;BME280;58152;49.202;18.744;2023-02-14T14:37:49;99006.47;;;5.90;60.90
70589;BME280;58152;49.202;18.744;2023-02-14T14:40:26;99005.59;;;5.90;61.05
70589;BME280;58152;49.202;18.744;2023-02-14T14:42:55;99001.25;;;5.85;61.13
70589;BME280;58152;49.202;18.744;2023-02-14T14:45:27;99003.00;;;5.85;61.02
70589;BME280;58152;49.202;18.744;2023-02-14T14:47:55;99002.13;;;5.84;61.29
70589;BME280;58152;49.202;18.744;2023-02-14T14:50:23;99000.41;;;5.83;61.06
70589;BME280;58152;49.202;18.744;2023-02-14T14:52:52;99003.03;;;5.82;61.08
70589;BME280;58152;49.202;18.744;2023-02-14T14:55:21;99002.16;;;5.78;61.03
70589;BME280;58152;49.202;18.744;2023-02-14T14:57:50;99006.50;;;5.78;60.82
70589;BME280;58152;49.202;18.744;2023-02-14T15:00:20;99000.41;;;5.74;60.86
70589;BME280;58152;49.202;18.744;2023-02-14T15:03:03;99014.31;;;5.73;60.79
70589;BME280;58152;49.202;18.744;2023-02-14T15:05:40;99015.16;;;5.72;61.26
70589;BME280;58152;49.202;18.744;2023-02-14T15:08:27;99003.00;;;5.67;61.00
70589;BME280;58152;49.202;18.744;2023-02-14T15:11:13;99010.81;;;5.70;61.50
70589;BME280;58152;49.202;18.744;2023-02-14T15:14:12;98996.94;;;5.65;61.42
70589;BME280;58152;49.202;18.744;2023-02-14T15:16:44;99003.88;;;5.64;61.62
70589;BME280;58152;49.202;18.744;2023-02-14T15:24:43;99007.34;;;5.60;61.36
70589;BME280;58152;49.202;18.744;2023-02-14T15:27:15;98997.78;;;5.56;61.39
70589;BME280;58152;49.202;18.744;2023-02-14T15:29:44;99007.34;;;5.55;61.48